KPSM/PSM METAR and TAF weather

Enter ICAO airport designator
Station Type Date Time Source
KPSM METAR 2022/06/30 23:56 UTC NOAA

KPSM 302356Z 00000KT 10SM FEW150 BKN250 23/06 A3011 RMK AO2A SLP198 T02320056 10264 20232 52006


Station Type Date Time Source
KPSM Decoded METAR 2022/06/30 23:56 UTC NOAA

Pease Air Force Base / Portsmouth, NH, United States (KPSM) 43-05N 070-49W
Jun 30, 2022 - 07:56 PM EDT / 2022.06.30 2356 UTC
Wind: Calm:0
Visibility: 10 mile(s):0
Sky conditions: mostly cloudy
Temperature: 73.8 F (23.2 C)
Dew Point: 42.1 F (5.6 C)
Relative Humidity: 31%
Pressure (altimeter): 30.11 in. Hg (1019 hPa)
Pressure tendency: 0.02 inches (0.6 hPa) higher than three hours ago
ob: KPSM 302356Z 00000KT 10SM FEW150 BKN250 23/06 A3011 RMK AO2A SLP198 T02320056 10264 20232 52006
cycle: 0

Station Type Date Time Source
KPSM TAF 2022/06/30 19:12 UTC NOAA

TAF
AMD KPSM 301911Z 3019/0118 28008KT P6SM FEW250
FM010000 20004KT P6SM FEW250
FM011500 22012KT P6SM SCT250

Example: see airport list